To NAV CANADA Home Page Login to a new session Search on AWWS site Feedback and Comments Disclaimer Vers la page française équivalente Tips FAQ What's new on the site To the Forecasts and Observations / NOTAM section To "File a Flight Plan" website Publications and other links Update of the User's profile FIC Telephone Numbers My Weather Data Folder Route Weather Data Regional Weather Data Local Weather Data To the Forecasts and Observations / NOTAM section
Request Generated 04/30/2017 at 20:31:33 UTC . Weather information available at that time is displayed.

METAR/TAF

BAKER LAKE/NU    

METAR CYBK 302000Z 35015KT 15SM FEW015 SCT230 M15/M19 A3030 RMK
SC2CI2 SLP264=
METAR CYBK 301900Z 35013KT 25SM BKN015 BKN230 M14/M18 A3029 RMK
SC7CI1 CI TR SLP262=
METAR CYBK 301800Z 35016KT 25SM FEW030 FEW230 M16/M19 A3028 RMK
SC1CI1 SC TR SLP257=

TAF CYBK 301739Z 3018/0106 35015KT P6SM FEW020 FEW120 TEMPO 3018/3021
5SM -SN BKN020
FM302100 33012KT P6SM FEW030
RMK NXT FCST BY 010000Z=
Your time UTC time
Weather data provided by Environment Canada and NAV CANADA